Star, North Carolina
Current Conditions -  °F | °C
As of 11:15 AM on Thursday 29 Jan 2015 (Local Time) from KHBI Reporting Station
Clear Clear  
Wind Chill: 40°   Ceiling: Unl
Heat Index: 43°   Visibility: 10mi
Dew Point: 20°   Wind: 6mph
Humidity: 40%   Direction: 220°SW
Pressure: 30.31"   Gusts: NA
Location:  35.4°N, 79.78°W
Report Text: KHBI 291615Z AUTO 22005KT 10SM CLR 06/M06 A3031 RMK AO2 T00631064
Loading
Personal Weather Stations






























Interactive Weather Map New forecast layout! Learn more

10-Day Weather Forecast

Advertisements
Track Severe Weather on mobile